sensor_id;sensor_type;location;lat;lon;timestamp;P1;durP1;ratioP1;P2;durP2;ratioP2
62419;SDS011;48460;51.616;5.426;2023-04-07T04:00:15;17.00;;;6.57;;
62419;SDS011;48460;51.616;5.426;2023-04-07T04:20:36;20.20;;;8.43;;
62419;SDS011;48460;51.616;5.426;2023-04-07T04:23:04;23.13;;;9.10;;
62419;SDS011;48460;51.616;5.426;2023-04-07T04:25:34;33.95;;;10.77;;
62419;SDS011;48460;51.616;5.426;2023-04-07T04:28:04;23.65;;;9.75;;
62419;SDS011;48460;51.616;5.426;2023-04-07T04:30:30;29.45;;;10.63;;
62419;SDS011;48460;51.616;5.426;2023-04-07T04:32:56;34.42;;;10.88;;
62419;SDS011;48460;51.616;5.426;2023-04-07T04:35:25;27.60;;;10.30;;
62419;SDS011;48460;51.616;5.426;2023-04-07T04:37:51;21.15;;;10.50;;
62419;SDS011;48460;51.616;5.426;2023-04-07T05:04:23;28.48;;;10.05;;
62419;SDS011;48460;51.616;5.426;2023-04-07T09:49:57;8.63;;;3.30;;
62419;SDS011;48460;51.616;5.426;2023-04-07T10:27:26;9.48;;;2.70;;
62419;SDS011;48460;51.616;5.426;2023-04-07T10:37:35;11.23;;;2.83;;
62419;SDS011;48460;51.616;5.426;2023-04-07T11:39:55;13.57;;;2.80;;
62419;SDS011;48460;51.616;5.426;2023-04-07T11:52:10;9.02;;;2.65;;
62419;SDS011;48460;51.616;5.426;2023-04-07T11:54:44;14.18;;;2.80;;
62419;SDS011;48460;51.616;5.426;2023-04-07T11:57:11;14.35;;;2.70;;
62419;SDS011;48460;51.616;5.426;2023-04-07T11:59:47;11.43;;;2.90;;
62419;SDS011;48460;51.616;5.426;2023-04-07T12:02:29;16.95;;;3.03;;
62419;SDS011;48460;51.616;5.426;2023-04-07T12:04:56;13.02;;;3.22;;
62419;SDS011;48460;51.616;5.426;2023-04-07T12:07:21;11.93;;;2.85;;
62419;SDS011;48460;51.616;5.426;2023-04-07T12:09:47;12.02;;;3.10;;
62419;SDS011;48460;51.616;5.426;2023-04-07T12:12:23;13.18;;;3.25;;
62419;SDS011;48460;51.616;5.426;2023-04-07T12:14:51;11.43;;;3.03;;
62419;SDS011;48460;51.616;5.426;2023-04-07T12:17:23;14.63;;;2.75;;
62419;SDS011;48460;51.616;5.426;2023-04-07T12:19:56;14.10;;;3.50;;
62419;SDS011;48460;51.616;5.426;2023-04-07T12:22:24;14.73;;;3.65;;
62419;SDS011;48460;51.616;5.426;2023-04-07T12:24:49;21.27;;;3.40;;
62419;SDS011;48460;51.616;5.426;2023-04-07T12:27:17;13.80;;;3.25;;
62419;SDS011;48460;51.616;5.426;2023-04-07T12:29:44;17.25;;;3.05;;
62419;SDS011;48460;51.616;5.426;2023-04-07T12:32:13;11.35;;;3.10;;
62419;SDS011;48460;51.616;5.426;2023-04-07T12:34:39;9.20;;;3.10;;
62419;SDS011;48460;51.616;5.426;2023-04-07T12:37:08;13.57;;;3.13;;
62419;SDS011;48460;51.616;5.426;2023-04-07T12:39:33;19.58;;;3.58;;
62419;SDS011;48460;51.616;5.426;2023-04-07T12:41:59;17.70;;;3.60;;
62419;SDS011;48460;51.616;5.426;2023-04-07T12:44:24;17.85;;;3.42;;
62419;SDS011;48460;51.616;5.426;2023-04-07T12:46:53;11.73;;;3.78;;
62419;SDS011;48460;51.616;5.426;2023-04-07T12:49:20;18.85;;;3.30;;
62419;SDS011;48460;51.616;5.426;2023-04-07T12:51:53;15.80;;;3.80;;
62419;SDS011;48460;51.616;5.426;2023-04-07T12:54:37;17.52;;;3.50;;
62419;SDS011;48460;51.616;5.426;2023-04-07T12:57:08;12.68;;;3.42;;
62419;SDS011;48460;51.616;5.426;2023-04-07T12:59:46;14.63;;;3.50;;
62419;SDS011;48460;51.616;5.426;2023-04-07T13:02:20;12.23;;;3.38;;
62419;SDS011;48460;51.616;5.426;2023-04-07T13:04:45;18.30;;;3.70;;
62419;SDS011;48460;51.616;5.426;2023-04-07T13:07:18;14.73;;;3.50;;
62419;SDS011;48460;51.616;5.426;2023-04-07T13:09:47;12.07;;;3.60;;
62419;SDS011;48460;51.616;5.426;2023-04-07T13:12:24;10.50;;;3.03;;
62419;SDS011;48460;51.616;5.426;2023-04-07T13:14:52;10.32;;;3.20;;
62419;SDS011;48460;51.616;5.426;2023-04-07T13:17:21;15.88;;;3.50;;
62419;SDS011;48460;51.616;5.426;2023-04-07T13:25:37;13.43;;;3.53;;
62419;SDS011;48460;51.616;5.426;2023-04-07T13:28:06;14.95;;;3.38;;
62419;SDS011;48460;51.616;5.426;2023-04-07T13:30:32;16.60;;;3.60;;
62419;SDS011;48460;51.616;5.426;2023-04-07T13:33:00;12.25;;;3.60;;
62419;SDS011;48460;51.616;5.426;2023-04-07T13:35:26;11.13;;;3.88;;
62419;SDS011;48460;51.616;5.426;2023-04-07T13:37:52;16.35;;;3.65;;
62419;SDS011;48460;51.616;5.426;2023-04-07T13:40:20;18.23;;;3.92;;
62419;SDS011;48460;51.616;5.426;2023-04-07T13:42:45;15.38;;;3.13;;
62419;SDS011;48460;51.616;5.426;2023-04-07T13:45:23;11.90;;;3.22;;
62419;SDS011;48460;51.616;5.426;2023-04-07T13:47:49;16.33;;;3.38;;
62419;SDS011;48460;51.616;5.426;2023-04-07T13:50:14;13.32;;;3.33;;
62419;SDS011;48460;51.616;5.426;2023-04-07T13:52:40;15.80;;;3.20;;
62419;SDS011;48460;51.616;5.426;2023-04-07T13:57:57;15.85;;;3.50;;
62419;SDS011;48460;51.616;5.426;2023-04-07T14:00:25;18.30;;;3.55;;
62419;SDS011;48460;51.616;5.426;2023-04-07T14:02:51;17.33;;;3.60;;
62419;SDS011;48460;51.616;5.426;2023-04-07T14:05:25;13.10;;;3.60;;
62419;SDS011;48460;51.616;5.426;2023-04-07T14:07:51;15.43;;;3.60;;
62419;SDS011;48460;51.616;5.426;2023-04-07T14:10:18;19.55;;;3.95;;
62419;SDS011;48460;51.616;5.426;2023-04-07T14:12:46;19.20;;;3.28;;
62419;SDS011;48460;51.616;5.426;2023-04-07T14:18:50;15.55;;;2.97;;
62419;SDS011;48460;51.616;5.426;2023-04-07T14:21:59;15.25;;;3.40;;
62419;SDS011;48460;51.616;5.426;2023-04-07T14:31:38;15.93;;;3.53;;
62419;SDS011;48460;51.616;5.426;2023-04-07T14:37:41;12.43;;;3.47;;
62419;SDS011;48460;51.616;5.426;2023-04-07T14:40:31;8.50;;;2.88;;
62419;SDS011;48460;51.616;5.426;2023-04-07T14:43:01;13.88;;;3.33;;
62419;SDS011;48460;51.616;5.426;2023-04-07T14:48:32;14.40;;;3.40;;
62419;SDS011;48460;51.616;5.426;2023-04-07T14:50:58;16.73;;;3.40;;
62419;SDS011;48460;51.616;5.426;2023-04-07T14:53:25;12.65;;;3.40;;
62419;SDS011;48460;51.616;5.426;2023-04-07T15:17:57;13.07;;;3.78;;
62419;SDS011;48460;51.616;5.426;2023-04-07T15:20:25;12.40;;;3.78;;
62419;SDS011;48460;51.616;5.426;2023-04-07T15:23:07;16.10;;;4.22;;
62419;SDS011;48460;51.616;5.426;2023-04-07T15:29:15;17.73;;;4.82;;
62419;SDS011;48460;51.616;5.426;2023-04-07T15:35:04;21.45;;;4.13;;
62419;SDS011;48460;51.616;5.426;2023-04-07T15:37:30;15.90;;;3.80;;
62419;SDS011;48460;51.616;5.426;2023-04-07T15:40:00;24.15;;;4.38;;
62419;SDS011;48460;51.616;5.426;2023-04-07T15:42:25;16.48;;;3.80;;
62419;SDS011;48460;51.616;5.426;2023-04-07T15:44:52;17.42;;;3.97;;
62419;SDS011;48460;51.616;5.426;2023-04-07T15:47:19;15.80;;;4.20;;
62419;SDS011;48460;51.616;5.426;2023-04-07T15:49:45;18.83;;;3.88;;
62419;SDS011;48460;51.616;5.426;2023-04-07T16:12:45;15.23;;;4.10;;
62419;SDS011;48460;51.616;5.426;2023-04-07T16:15:20;15.95;;;3.97;;
62419;SDS011;48460;51.616;5.426;2023-04-07T16:17:47;17.90;;;4.20;;
62419;SDS011;48460;51.616;5.426;2023-04-07T16:20:13;12.25;;;4.28;;
62419;SDS011;48460;51.616;5.426;2023-04-07T16:22:48;13.55;;;4.35;;
62419;SDS011;48460;51.616;5.426;2023-04-07T16:25:15;15.35;;;4.18;;
62419;SDS011;48460;51.616;5.426;2023-04-07T16:27:46;20.67;;;4.45;;
62419;SDS011;48460;51.616;5.426;2023-04-07T16:33:34;16.20;;;4.43;;
62419;SDS011;48460;51.616;5.426;2023-04-07T16:36:00;22.75;;;4.35;;
62419;SDS011;48460;51.616;5.426;2023-04-07T16:38:27;15.48;;;4.20;;
62419;SDS011;48460;51.616;5.426;2023-04-07T16:40:56;13.10;;;3.80;;
62419;SDS011;48460;51.616;5.426;2023-04-07T16:43:22;11.40;;;4.00;;
62419;SDS011;48460;51.616;5.426;2023-04-07T16:48:51;18.00;;;4.57;;
62419;SDS011;48460;51.616;5.426;2023-04-07T16:51:17;14.13;;;4.30;;
62419;SDS011;48460;51.616;5.426;2023-04-07T16:53:44;19.70;;;4.30;;
62419;SDS011;48460;51.616;5.426;2023-04-07T16:59:12;10.98;;;4.40;;
62419;SDS011;48460;51.616;5.426;2023-04-07T17:01:38;12.15;;;4.20;;
62419;SDS011;48460;51.616;5.426;2023-04-07T17:04:04;16.10;;;4.05;;
62419;SDS011;48460;51.616;5.426;2023-04-07T17:06:29;18.98;;;4.20;;
62419;SDS011;48460;51.616;5.426;2023-04-07T17:08:55;14.18;;;4.47;;
62419;SDS011;48460;51.616;5.426;2023-04-07T17:11:25;17.15;;;3.92;;
62419;SDS011;48460;51.616;5.426;2023-04-07T17:13:51;13.35;;;3.90;;
62419;SDS011;48460;51.616;5.426;2023-04-07T17:16:28;14.70;;;4.10;;
62419;SDS011;48460;51.616;5.426;2023-04-07T17:24:47;12.50;;;4.00;;
62419;SDS011;48460;51.616;5.426;2023-04-07T17:27:19;18.63;;;4.50;;
62419;SDS011;48460;51.616;5.426;2023-04-07T17:30:26;17.10;;;4.53;;
62419;SDS011;48460;51.616;5.426;2023-04-07T17:32:51;14.88;;;5.18;;
62419;SDS011;48460;51.616;5.426;2023-04-07T17:35:17;16.70;;;4.65;;
62419;SDS011;48460;51.616;5.426;2023-04-07T17:37:47;16.70;;;4.57;;
62419;SDS011;48460;51.616;5.426;2023-04-07T17:43:52;20.52;;;4.72;;
62419;SDS011;48460;51.616;5.426;2023-04-07T17:46:39;16.67;;;4.60;;
62419;SDS011;48460;51.616;5.426;2023-04-07T17:49:09;17.70;;;5.18;;
62419;SDS011;48460;51.616;5.426;2023-04-07T17:55:01;21.08;;;5.45;;
62419;SDS011;48460;51.616;5.426;2023-04-07T18:00:30;20.70;;;5.70;;
62419;SDS011;48460;51.616;5.426;2023-04-07T18:03:07;19.35;;;5.88;;
62419;SDS011;48460;51.616;5.426;2023-04-07T18:05:43;23.77;;;6.32;;
62419;SDS011;48460;51.616;5.426;2023-04-07T18:08:09;18.17;;;5.75;;
62419;SDS011;48460;51.616;5.426;2023-04-07T18:10:35;20.00;;;5.47;;
62419;SDS011;48460;51.616;5.426;2023-04-07T18:16:36;22.15;;;6.50;;
62419;SDS011;48460;51.616;5.426;2023-04-07T18:19:04;20.00;;;5.82;;
62419;SDS011;48460;51.616;5.426;2023-04-07T18:21:37;19.75;;;5.80;;
62419;SDS011;48460;51.616;5.426;2023-04-07T18:24:02;20.30;;;6.10;;
62419;SDS011;48460;51.616;5.426;2023-04-07T18:26:28;24.25;;;6.00;;
62419;SDS011;48460;51.616;5.426;2023-04-07T18:29:03;19.38;;;6.30;;
62419;SDS011;48460;51.616;5.426;2023-04-07T18:31:45;21.00;;;6.10;;
62419;SDS011;48460;51.616;5.426;2023-04-07T18:34:10;21.90;;;6.00;;
62419;SDS011;48460;51.616;5.426;2023-04-07T18:36:44;29.40;;;7.30;;
62419;SDS011;48460;51.616;5.426;2023-04-07T18:48:46;14.45;;;5.50;;
62419;SDS011;48460;51.616;5.426;2023-04-07T18:54:36;23.25;;;6.40;;
62419;SDS011;48460;51.616;5.426;2023-04-07T18:57:13;17.13;;;5.90;;
62419;SDS011;48460;51.616;5.426;2023-04-07T18:59:45;27.65;;;6.68;;
62419;SDS011;48460;51.616;5.426;2023-04-07T19:02:17;16.70;;;5.97;;
62419;SDS011;48460;51.616;5.426;2023-04-07T19:12:01;19.17;;;5.72;;
62419;SDS011;48460;51.616;5.426;2023-04-07T19:17:57;14.23;;;5.80;;
62419;SDS011;48460;51.616;5.426;2023-04-07T19:20:42;17.52;;;6.03;;
62419;SDS011;48460;51.616;5.426;2023-04-07T19:23:13;20.42;;;5.57;;
62419;SDS011;48460;51.616;5.426;2023-04-07T19:25:53;15.55;;;6.18;;
62419;SDS011;48460;51.616;5.426;2023-04-07T19:28:18;16.75;;;6.72;;
62419;SDS011;48460;51.616;5.426;2023-04-07T19:30:44;16.05;;;6.25;;
62419;SDS011;48460;51.616;5.426;2023-04-07T19:33:12;18.33;;;6.55;;
62419;SDS011;48460;51.616;5.426;2023-04-07T19:35:48;17.98;;;6.47;;
62419;SDS011;48460;51.616;5.426;2023-04-07T19:50:47;13.40;;;5.97;;
62419;SDS011;48460;51.616;5.426;2023-04-07T20:22:03;20.13;;;8.82;;
62419;SDS011;48460;51.616;5.426;2023-04-07T20:24:30;22.63;;;8.60;;
62419;SDS011;48460;51.616;5.426;2023-04-07T20:27:01;28.38;;;8.48;;
62419;SDS011;48460;51.616;5.426;2023-04-07T21:11:22;24.70;;;9.50;;
62419;SDS011;48460;51.616;5.426;2023-04-07T21:17:53;26.92;;;10.75;;
62419;SDS011;48460;51.616;5.426;2023-04-07T21:20:23;24.08;;;10.30;;
62419;SDS011;48460;51.616;5.426;2023-04-07T21:22:49;26.10;;;11.45;;
62419;SDS011;48460;51.616;5.426;2023-04-07T21:25:15;26.02;;;11.77;;
62419;SDS011;48460;51.616;5.426;2023-04-07T21:27:43;24.23;;;11.10;;
62419;SDS011;48460;51.616;5.426;2023-04-07T21:30:20;34.40;;;11.23;;
62419;SDS011;48460;51.616;5.426;2023-04-07T21:55:29;22.95;;;10.10;;
62419;SDS011;48460;51.616;5.426;2023-04-07T22:01:39;24.50;;;10.82;;
62419;SDS011;48460;51.616;5.426;2023-04-07T22:14:11;25.23;;;10.57;;
62419;SDS011;48460;51.616;5.426;2023-04-07T22:16:37;29.63;;;11.80;;
62419;SDS011;48460;51.616;5.426;2023-04-07T22:22:44;26.05;;;11.32;;
62419;SDS011;48460;51.616;5.426;2023-04-07T22:29:03;24.75;;;11.82;;
62419;SDS011;48460;51.616;5.426;2023-04-07T22:31:36;24.73;;;11.80;;
62419;SDS011;48460;51.616;5.426;2023-04-07T22:34:04;33.35;;;13.63;;
62419;SDS011;48460;51.616;5.426;2023-04-07T22:36:32;33.85;;;12.57;;
62419;SDS011;48460;51.616;5.426;2023-04-07T22:39:03;31.55;;;12.55;;
62419;SDS011;48460;51.616;5.426;2023-04-07T22:41:45;39.40;;;13.25;;
62419;SDS011;48460;51.616;5.426;2023-04-07T22:47:46;25.85;;;12.32;;
62419;SDS011;48460;51.616;5.426;2023-04-07T22:50:20;36.25;;;13.20;;
62419;SDS011;48460;51.616;5.426;2023-04-07T22:52:46;26.25;;;13.82;;
62419;SDS011;48460;51.616;5.426;2023-04-07T22:55:13;32.55;;;13.95;;
62419;SDS011;48460;51.616;5.426;2023-04-07T22:57:41;26.75;;;13.75;;
62419;SDS011;48460;51.616;5.426;2023-04-07T23:03:38;34.17;;;15.70;;
62419;SDS011;48460;51.616;5.426;2023-04-07T23:06:07;35.28;;;14.63;;
62419;SDS011;48460;51.616;5.426;2023-04-07T23:08:33;33.92;;;15.30;;
62419;SDS011;48460;51.616;5.426;2023-04-07T23:10:59;35.45;;;15.63;;
62419;SDS011;48460;51.616;5.426;2023-04-07T23:27:26;30.67;;;14.35;;
62419;SDS011;48460;51.616;5.426;2023-04-07T23:43:37;26.55;;;15.05;;
62419;SDS011;48460;51.616;5.426;2023-04-07T23:59:31;38.60;;;16.15;;
